Time;durP1;ratioP1;P1;durP2;ratioP2;P2;SDS_P1;SDS_P2;PMS_P1;PMS_P2;Temp;Humidity;BMP_temperature;BMP_pressure;BME280_temperature;BME280_humidity;BME280_pressure;Samples;Min_cycle;Max_cycle;Signal;HPM_P1;HPM_P2
2022/10/04 00:01:31;;;;;;;13.90;4.95;;;12.20;99.90;;;;;;5089930;28;20040;-70
2022/10/04 00:04:07;;;;;;;12.05;4.72;;;12.20;99.90;;;;;;5088375;28;20044;-69
2022/10/04 00:06:34;;;;;;;11.15;4.75;;;12.20;99.90;;;;;;5090715;28;20040;-72
2022/10/04 00:09:13;;;;;;;11.05;4.85;;;12.20;99.90;;;;;;5089470;28;20040;-69
2022/10/04 00:11:44;;;;;;;11.25;5.25;;;12.20;99.90;;;;;;5073509;28;20056;-70
2022/10/04 00:14:24;;;;;;;13.63;5.35;;;12.20;99.90;;;;;;5089234;28;20055;-70
2022/10/04 00:16:51;;;;;;;13.48;5.47;;;12.20;99.90;;;;;;5090766;28;20032;-71
2022/10/04 00:19:24;;;;;;;13.07;6.40;;;12.20;99.90;;;;;;5090954;28;20040;-69
2022/10/04 00:21:55;;;;;;;9.10;4.95;;;12.20;99.90;;;;;;5090183;28;20431;-71
2022/10/04 00:24:27;;;;;;;16.27;5.32;;;12.20;99.90;;;;;;5073024;28;20035;-69
2022/10/04 00:27:11;;;;;;;12.13;5.40;;;12.20;99.90;;;;;;5089282;28;20051;-70
2022/10/04 00:29:41;;;;;;;9.85;5.38;;;12.10;99.90;;;;;;5090059;28;20044;-69
2022/10/04 00:32:09;;;;;;;12.27;5.70;;;12.20;99.90;;;;;;5071720;28;20126;-71
2022/10/04 00:34:35;;;;;;;11.07;6.43;;;12.20;99.90;;;;;;5069525;28;20120;-69
2022/10/04 00:37:02;;;;;;;12.30;6.70;;;12.20;99.90;;;;;;5070273;28;20110;-68
2022/10/04 00:39:33;;;;;;;12.55;5.40;;;12.20;99.90;;;;;;5071396;28;20039;-71
2022/10/04 00:42:08;;;;;;;11.25;5.70;;;12.20;99.90;;;;;;5072362;28;20043;-71
2022/10/04 00:45:03;;;;;;;13.05;6.10;;;12.20;99.90;;;;;;5070230;28;20094;-68
2022/10/04 00:47:53;;;;;;;12.45;5.90;;;12.20;99.90;;;;;;5056973;28;20375;-71
2022/10/04 00:50:20;;;;;;;10.82;6.03;;;12.20;99.90;;;;;;5054371;28;20052;-70
2022/10/04 00:52:53;;;;;;;14.88;6.05;;;12.20;99.90;;;;;;5073401;28;20444;-68
2022/10/04 00:55:32;;;;;;;10.45;5.85;;;12.20;99.90;;;;;;5070614;28;20075;-68
2022/10/04 00:58:01;;;;;;;12.95;6.35;;;12.20;99.90;;;;;;5069555;28;20043;-67
2022/10/04 01:00:32;;;;;;;9.38;5.50;;;12.20;99.90;;;;;;5069305;28;20055;-72
2022/10/04 01:03:05;;;;;;;9.27;6.07;;;12.20;99.90;;;;;;5072848;28;20067;-70
2022/10/04 01:05:35;;;;;;;9.48;5.60;;;12.20;99.90;;;;;;5071393;28;20055;-70
2022/10/04 01:08:08;;;;;;;11.63;6.20;;;12.20;99.90;;;;;;5069031;28;20048;-69
2022/10/04 01:10:44;;;;;;;12.10;6.32;;;12.20;99.90;;;;;;5055146;28;20044;-70
2022/10/04 01:13:16;;;;;;;12.07;5.65;;;12.20;99.90;;;;;;5073583;28;20047;-70
2022/10/04 01:16:14;;;;;;;10.98;5.60;;;12.20;99.90;;;;;;5070390;28;20504;-70
2022/10/04 01:18:40;;;;;;;12.38;6.10;;;12.20;99.90;;;;;;5067737;28;20202;-69
2022/10/04 01:21:08;;;;;;;8.93;5.70;;;12.20;99.90;;;;;;5054165;28;20048;-68
2022/10/04 01:23:33;;;;;;;8.57;6.13;;;12.20;99.90;;;;;;5070998;28;20039;-69
2022/10/04 01:26:00;;;;;;;12.85;5.78;;;12.20;99.90;;;;;;5070237;28;20494;-69
2022/10/04 01:28:26;;;;;;;11.13;5.68;;;12.20;99.90;;;;;;5072650;28;20085;-69
2022/10/04 01:30:52;;;;;;;10.02;6.07;;;12.20;99.90;;;;;;5067645;28;20071;-71
2022/10/04 01:33:18;;;;;;;13.20;6.15;;;12.20;99.90;;;;;;5068149;28;20040;-69
2022/10/04 01:35:44;;;;;;;8.98;6.00;;;12.20;99.90;;;;;;5068136;28;20105;-71
2022/10/04 01:38:11;;;;;;;11.68;6.03;;;12.10;99.90;;;;;;5065729;28;20058;-71
2022/10/04 01:40:51;;;;;;;14.10;6.60;;;12.10;99.90;;;;;;5069091;28;20038;-71
2022/10/04 01:43:30;;;;;;;9.65;6.03;;;12.10;99.90;;;;;;5071425;28;20521;-68
2022/10/04 01:46:10;;;;;;;10.73;5.97;;;12.10;99.90;;;;;;5053625;28;20060;-70
2022/10/04 01:48:39;;;;;;;11.48;6.10;;;12.10;99.90;;;;;;5068266;28;20124;-68
2022/10/04 01:51:17;;;;;;;10.27;5.15;;;12.00;99.90;;;;;;5070375;28;20044;-69
2022/10/04 01:54:14;;;;;;;11.30;5.60;;;12.00;99.90;;;;;;5070908;28;20089;-70
2022/10/04 01:56:50;;;;;;;15.50;5.97;;;12.00;99.90;;;;;;5068346;28;20082;-70
2022/10/04 01:59:28;;;;;;;10.20;5.63;;;12.00;99.90;;;;;;5069449;28;20043;-71
2022/10/04 02:02:04;;;;;;;11.82;5.35;;;12.00;99.90;;;;;;5049599;28;20051;-69
2022/10/04 02:04:34;;;;;;;12.13;5.53;;;12.00;99.90;;;;;;5070833;28;20123;-70
2022/10/04 02:07:02;;;;;;;14.35;5.50;;;11.90;99.90;;;;;;5070268;28;20040;-70
2022/10/04 02:09:33;;;;;;;9.93;5.35;;;11.90;99.90;;;;;;5067086;28;20127;-70
2022/10/04 02:11:59;;;;;;;10.13;5.00;;;11.90;99.90;;;;;;5070010;28;20051;-70
2022/10/04 02:14:30;;;;;;;11.25;5.28;;;11.90;99.90;;;;;;5067123;28;20040;-69
2022/10/04 02:16:58;;;;;;;10.13;5.38;;;11.80;99.90;;;;;;5070477;28;20089;-69
2022/10/04 02:19:30;;;;;;;11.93;5.60;;;11.80;99.90;;;;;;5066326;28;20051;-69
2022/10/04 02:21:57;;;;;;;12.40;5.50;;;11.70;99.90;;;;;;5069646;28;20024;-70
2022/10/04 02:24:23;;;;;;;11.13;5.30;;;11.70;99.90;;;;;;5070170;28;20043;-70
2022/10/04 02:26:51;;;;;;;12.95;5.28;;;11.60;99.90;;;;;;5068539;28;20043;-69
2022/10/04 02:29:18;;;;;;;9.98;4.97;;;11.60;99.90;;;;;;5069688;28;20048;-68
2022/10/04 02:34:29;;;;;;;11.52;5.57;;;11.50;99.90;;;;;;5088681;28;20075;-71
2022/10/04 02:36:56;;;;;;;11.98;5.38;;;11.40;99.90;;;;;;5071647;28;20068;-68
2022/10/04 02:39:28;;;;;;;10.05;5.70;;;11.40;99.90;;;;;;5088536;28;20035;-69
2022/10/04 02:42:02;;;;;;;11.82;5.38;;;11.30;99.90;;;;;;5091284;28;20120;-68
2022/10/04 02:44:50;;;;;;;7.40;5.22;;;11.30;99.90;;;;;;5092723;28;20051;-70
2022/10/04 02:47:28;;;;;;;11.85;5.65;;;11.20;99.90;;;;;;5094538;28;20040;-70
2022/10/04 02:49:58;;;;;;;8.32;4.50;;;11.20;99.90;;;;;;5092135;28;20120;-68
2022/10/04 02:52:43;;;;;;;11.10;5.15;;;11.20;99.90;;;;;;5090576;28;20075;-70
2022/10/04 02:55:20;;;;;;;11.77;5.80;;;11.20;99.90;;;;;;5092759;28;20429;-71
2022/10/04 02:57:46;;;;;;;11.30;5.97;;;11.10;99.90;;;;;;5092076;28;20043;-70
2022/10/04 03:00:11;;;;;;;9.23;5.10;;;11.10;99.90;;;;;;5092608;28;20065;-69
2022/10/04 03:02:38;;;;;;;11.35;5.72;;;11.10;99.90;;;;;;5091276;28;20036;-69
2022/10/04 03:05:14;;;;;;;9.10;5.18;;;11.10;99.90;;;;;;5075478;28;20421;-71
2022/10/04 03:07:40;;;;;;;13.38;5.95;;;11.10;99.90;;;;;;5090536;28;20137;-68
2022/10/04 03:10:10;;;;;;;11.30;6.00;;;11.00;99.90;;;;;;5075710;28;20076;-70
2022/10/04 03:12:37;;;;;;;15.68;6.63;;;11.00;99.90;;;;;;5091966;28;20063;-69
2022/10/04 03:15:09;;;;;;;13.45;6.57;;;10.90;99.90;;;;;;5092707;28;20501;-68
2022/10/04 03:17:35;;;;;;;11.02;7.10;;;10.90;99.90;;;;;;5092372;28;20067;-69
2022/10/04 03:20:04;;;;;;;14.00;7.00;;;11.00;99.90;;;;;;5092257;28;20035;-68
2022/10/04 03:22:30;;;;;;;15.82;6.88;;;10.90;99.90;;;;;;5074892;28;20032;-68
2022/10/04 03:24:57;;;;;;;11.23;6.75;;;10.90;99.90;;;;;;5074904;28;20479;-69
2022/10/04 03:27:30;;;;;;;14.82;7.32;;;11.00;99.90;;;;;;5092204;28;20097;-69
2022/10/04 03:29:58;;;;;;;11.73;7.00;;;10.90;99.90;;;;;;5091979;28;20040;-70
2022/10/04 03:32:24;;;;;;;13.40;7.22;;;10.90;99.90;;;;;;5091789;28;20040;-69
2022/10/04 03:35:02;;;;;;;11.00;7.03;;;10.90;99.90;;;;;;5091482;28;20044;-69
2022/10/04 03:37:33;;;;;;;14.02;7.97;;;10.90;99.90;;;;;;5091078;28;20127;-68
2022/10/04 03:40:01;;;;;;;13.02;7.72;;;10.90;99.90;;;;;;5076984;28;20118;-72
2022/10/04 03:42:29;;;;;;;13.20;8.10;;;10.90;99.90;;;;;;5075223;28;20068;-69
2022/10/04 03:45:11;;;;;;;17.73;8.13;;;10.90;99.90;;;;;;5090884;28;20036;-68
2022/10/04 03:47:41;;;;;;;13.93;7.87;;;10.90;99.90;;;;;;5088459;28;20047;-69
2022/10/04 03:50:28;;;;;;;13.50;7.75;;;10.90;99.90;;;;;;5090475;28;20296;-69
2022/10/04 03:53:03;;;;;;;12.07;7.80;;;10.80;99.90;;;;;;5090850;28;20109;-70
2022/10/04 03:55:37;;;;;;;16.00;7.93;;;10.80;99.90;;;;;;5092495;28;20505;-70
2022/10/04 03:58:05;;;;;;;13.77;7.70;;;10.80;99.90;;;;;;5093228;28;20820;-72
2022/10/04 04:00:33;;;;;;;16.92;8.23;;;10.80;99.90;;;;;;5075976;28;20385;-68
2022/10/04 04:03:02;;;;;;;13.55;7.53;;;10.70;99.90;;;;;;5072928;28;20474;-68
2022/10/04 04:05:38;;;;;;;10.57;7.28;;;10.70;99.90;;;;;;5075381;28;20066;-71
2022/10/04 04:08:33;;;;;;;15.90;8.68;;;10.60;99.90;;;;;;5091340;28;20051;-71
2022/10/04 04:11:02;;;;;;;13.75;7.85;;;10.50;99.90;;;;;;5084109;28;20044;-69
2022/10/04 04:14:06;;;;;;;12.52;7.38;;;10.50;99.90;;;;;;5091392;28;20032;-71
2022/10/04 04:16:33;;;;;;;13.60;7.45;;;10.50;99.90;;;;;;5088107;28;20437;-69
2022/10/04 04:19:02;;;;;;;13.82;7.63;;;10.50;99.90;;;;;;5089549;28;20114;-69
2022/10/04 04:21:30;;;;;;;8.90;6.90;;;10.40;99.90;;;;;;5089824;28;20116;-71
2022/10/04 04:24:01;;;;;;;16.67;8.02;;;10.40;99.90;;;;;;5090751;28;20047;-70
2022/10/04 04:26:39;;;;;;;12.70;8.10;;;10.30;99.90;;;;;;5090217;28;20046;-69
2022/10/04 04:29:07;;;;;;;13.32;7.95;;;10.40;99.90;;;;;;5090658;28;20490;-70
2022/10/04 04:31:50;;;;;;;13.63;7.95;;;10.30;99.90;;;;;;5074178;28;20413;-69
2022/10/04 04:34:23;;;;;;;12.38;8.13;;;10.30;99.90;;;;;;5089884;28;20063;-69
2022/10/04 04:36:51;;;;;;;12.52;8.48;;;10.30;99.90;;;;;;5089407;28;20120;-69
2022/10/04 04:39:33;;;;;;;12.65;7.93;;;10.20;99.90;;;;;;5089972;28;20032;-69
2022/10/04 04:42:01;;;;;;;9.73;6.97;;;10.20;99.90;;;;;;5089068;28;20067;-69
2022/10/04 04:44:27;;;;;;;11.27;7.63;;;10.20;99.90;;;;;;5091197;28;20055;-69
2022/10/04 04:46:59;;;;;;;11.88;7.63;;;10.20;99.90;;;;;;5087018;28;20047;-67
2022/10/04 04:49:28;;;;;;;11.73;8.53;;;10.20;99.90;;;;;;5090405;28;20054;-71
2022/10/04 04:51:56;;;;;;;15.77;8.85;;;10.20;99.90;;;;;;5088716;28;20050;-68
2022/10/04 04:54:26;;;;;;;11.93;8.13;;;10.20;99.90;;;;;;5090862;28;20036;-71
2022/10/04 04:56:54;;;;;;;14.38;9.20;;;10.20;99.90;;;;;;5070557;28;20472;-68
2022/10/04 04:59:26;;;;;;;12.43;8.75;;;10.20;99.90;;;;;;5088683;28;20036;-69
2022/10/04 05:01:52;;;;;;;13.35;9.07;;;10.20;99.90;;;;;;5089513;28;20044;-70
2022/10/04 05:04:25;;;;;;;16.10;9.15;;;10.20;99.90;;;;;;5087935;28;20048;-68
2022/10/04 05:07:15;;;;;;;12.90;10.10;;;10.20;99.90;;;;;;5089041;28;20039;-68
2022/10/04 05:09:41;;;;;;;17.42;10.73;;;10.20;99.90;;;;;;5089531;28;20471;-70
2022/10/04 05:12:19;;;;;;;17.30;10.48;;;10.20;99.90;;;;;;5088762;28;20039;-68
2022/10/04 05:14:48;;;;;;;16.73;10.10;;;10.20;99.90;;;;;;5089289;28;20127;-69
2022/10/04 05:17:18;;;;;;;19.92;10.13;;;10.20;99.90;;;;;;5090121;28;20039;-71
2022/10/04 05:19:45;;;;;;;13.48;10.55;;;10.20;99.90;;;;;;5088744;28;20043;-69
2022/10/04 05:22:16;;;;;;;15.02;9.68;;;10.20;99.90;;;;;;5087311;28;20040;-71
2022/10/04 05:24:45;;;;;;;14.15;9.77;;;10.20;99.90;;;;;;5086530;28;20292;-70
2022/10/04 05:27:26;;;;;;;15.43;10.10;;;10.20;99.90;;;;;;5080957;28;20048;-68
2022/10/04 05:30:17;;;;;;;17.88;10.52;;;10.20;99.90;;;;;;5090162;28;20056;-69
2022/10/04 05:33:07;;;;;;;14.90;9.85;;;10.20;99.90;;;;;;5068966;28;20503;-70
2022/10/04 05:35:54;;;;;;;17.65;10.50;;;10.20;99.90;;;;;;5058154;28;20044;-70
2022/10/04 05:38:48;;;;;;;16.17;10.38;;;10.10;99.90;;;;;;5050049;28;20032;-71
2022/10/04 05:41:38;;;;;;;16.23;10.40;;;10.10;99.90;;;;;;5051578;28;20055;-70
2022/10/04 05:44:34;;;;;;;13.98;10.32;;;10.10;99.90;;;;;;5052661;28;20036;-69
2022/10/04 05:47:02;;;;;;;13.70;9.73;;;10.10;99.90;;;;;;5067984;28;20042;-70
2022/10/04 05:49:33;;;;;;;12.82;9.20;;;10.20;99.90;;;;;;5072322;28;20128;-69
2022/10/04 05:52:02;;;;;;;17.73;11.15;;;10.20;99.90;;;;;;5070474;28;20115;-69
2022/10/04 05:54:34;;;;;;;14.15;9.75;;;10.20;99.90;;;;;;5071348;28;20036;-69
2022/10/04 05:57:22;;;;;;;14.68;10.20;;;10.20;99.90;;;;;;5067556;28;20036;-69
2022/10/04 06:00:19;;;;;;;17.63;10.07;;;10.20;99.90;;;;;;5070889;28;20035;-68
2022/10/04 06:03:04;;;;;;;15.48;10.45;;;10.20;99.90;;;;;;5054003;28;20398;-68
2022/10/04 06:05:52;;;;;;;15.07;10.20;;;10.20;99.90;;;;;;5071658;28;20040;-67
2022/10/04 06:08:44;;;;;;;17.10;11.05;;;10.20;99.90;;;;;;5054370;28;20060;-69
2022/10/04 06:11:39;;;;;;;19.13;12.00;;;10.20;99.90;;;;;;5072159;28;20052;-70
2022/10/04 06:14:15;;;;;;;16.85;10.73;;;10.20;99.90;;;;;;5053831;28;20052;-70
2022/10/04 06:17:00;;;;;;;18.02;11.10;;;10.20;99.90;;;;;;5051163;28;20050;-69
2022/10/04 06:19:41;;;;;;;16.38;11.48;;;10.20;99.90;;;;;;5059802;28;20029;-69
2022/10/04 06:22:25;;;;;;;18.85;10.55;;;10.30;99.90;;;;;;5052742;28;20040;-69
2022/10/04 06:25:02;;;;;;;15.05;11.20;;;10.20;99.90;;;;;;5065915;28;20051;-70
2022/10/04 06:27:32;;;;;;;15.98;11.40;;;10.20;99.90;;;;;;5068297;28;20402;-69
2022/10/04 06:30:06;;;;;;;13.65;11.45;;;10.30;99.90;;;;;;5054948;28;20496;-70
2022/10/04 06:32:43;;;;;;;13.82;10.73;;;10.30;99.90;;;;;;5072555;28;20047;-70
2022/10/04 06:35:50;;;;;;;16.20;10.95;;;10.30;99.90;;;;;;5072138;28;20032;-69
2022/10/04 06:38:45;;;;;;;15.85;11.63;;;10.30;99.90;;;;;;5071908;28;20470;-70
2022/10/04 06:41:35;;;;;;;14.90;11.45;;;10.30;99.90;;;;;;5054792;28;20372;-69
2022/10/04 06:44:11;;;;;;;18.25;11.90;;;10.40;99.90;;;;;;5071645;28;20051;-68
2022/10/04 06:46:42;;;;;;;16.45;11.98;;;10.40;99.90;;;;;;5072253;28;20451;-69
2022/10/04 06:49:26;;;;;;;17.00;12.10;;;10.50;99.90;;;;;;5071968;28;20441;-69
2022/10/04 06:52:07;;;;;;;18.73;13.15;;;10.50;99.90;;;;;;5055171;28;20402;-69
2022/10/04 06:54:59;;;;;;;16.40;12.32;;;10.60;99.90;;;;;;5070997;28;20097;-69
2022/10/04 06:57:31;;;;;;;16.70;13.48;;;10.70;99.90;;;;;;5055307;28;20036;-70
2022/10/04 07:00:04;;;;;;;17.98;12.88;;;10.80;99.90;;;;;;5071697;28;20044;-70
2022/10/04 07:02:39;;;;;;;24.77;13.93;;;10.90;99.90;;;;;;5072193;28;20040;-69
2022/10/04 07:05:29;;;;;;;18.33;13.88;;;11.10;99.90;;;;;;5054515;28;20036;-68
2022/10/04 07:08:07;;;;;;;17.98;13.02;;;11.20;99.90;;;;;;5071786;28;20502;-68
2022/10/04 07:10:52;;;;;;;18.60;12.27;;;11.40;99.90;;;;;;5071956;28;20036;-70
2022/10/04 07:13:30;;;;;;;19.15;11.88;;;11.50;99.90;;;;;;5072081;28;20486;-69
2022/10/04 07:16:05;;;;;;;20.58;12.82;;;11.60;99.90;;;;;;5070060;28;20056;-70
2022/10/04 07:19:09;;;;;;;20.67;11.43;;;11.60;99.90;;;;;;5050100;28;20036;-69
2022/10/04 07:22:03;;;;;;;19.75;12.77;;;11.60;99.90;;;;;;5047859;28;20044;-69
2022/10/04 07:24:47;;;;;;;17.17;11.70;;;11.60;99.90;;;;;;5065064;28;20040;-68
2022/10/04 07:27:18;;;;;;;20.05;12.20;;;11.60;99.90;;;;;;5052848;28;20142;-69
2022/10/04 07:29:46;;;;;;;16.40;11.98;;;11.60;99.90;;;;;;5074657;28;20142;-70
2022/10/04 07:32:26;;;;;;;17.98;13.00;;;11.60;99.90;;;;;;5089793;28;20427;-69
2022/10/04 07:35:15;;;;;;;20.30;12.63;;;11.60;99.90;;;;;;5072823;28;20044;-70
2022/10/04 07:38:05;;;;;;;17.63;12.55;;;11.80;99.90;;;;;;5074976;28;20051;-71
2022/10/04 07:40:39;;;;;;;16.20;12.27;;;12.10;99.90;;;;;;5089629;28;20040;-70
2022/10/04 07:43:13;;;;;;;16.88;11.75;;;12.30;99.90;;;;;;5091679;28;20401;-69
2022/10/04 07:45:40;;;;;;;18.33;11.40;;;12.60;99.90;;;;;;5072343;28;20036;-70
2022/10/04 07:48:22;;;;;;;14.35;12.30;;;12.80;99.90;;;;;;5090685;28;20052;-69
2022/10/04 07:51:08;;;;;;;12.85;10.95;;;13.10;99.90;;;;;;5087170;28;20047;-70
2022/10/04 07:53:57;;;;;;;14.95;11.60;;;13.20;99.90;;;;;;5091757;28;20350;-69
2022/10/04 07:56:38;;;;;;;15.68;11.10;;;13.10;99.90;;;;;;5089964;28;20040;-70
2022/10/04 07:59:17;;;;;;;16.45;10.68;;;13.10;99.90;;;;;;5090850;28;20115;-71
2022/10/04 08:02:14;;;;;;;16.10;10.55;;;13.00;99.90;;;;;;5088017;28;20044;-70
2022/10/04 08:04:42;;;;;;;19.45;12.07;;;12.90;99.90;;;;;;5060452;28;20186;-69
2022/10/04 08:07:24;;;;;;;16.77;11.32;;;13.00;99.90;;;;;;5089211;28;20051;-68
2022/10/04 08:10:06;;;;;;;16.53;10.83;;;13.20;99.90;;;;;;5091843;28;20047;-70
2022/10/04 08:13:02;;;;;;;13.38;10.98;;;13.50;99.90;;;;;;5090064;28;20294;-69
2022/10/04 08:15:37;;;;;;;16.45;11.05;;;13.70;99.90;;;;;;5091159;28;20043;-71
2022/10/04 08:18:33;;;;;;;17.90;11.60;;;13.90;99.90;;;;;;5122283;27;20059;-69
2022/10/04 08:21:07;;;;;;;15.95;11.45;;;14.00;99.90;;;;;;5073874;28;20460;-70
2022/10/04 08:24:11;;;;;;;14.60;10.02;;;14.10;99.90;;;;;;5069283;28;20048;-69
2022/10/04 08:27:17;;;;;;;15.10;10.75;;;14.20;99.90;;;;;;5090236;28;20044;-70
2022/10/04 08:30:11;;;;;;;17.10;10.43;;;14.40;99.90;;;;;;5074532;28;20050;-69
2022/10/04 08:33:16;;;;;;;13.85;10.35;;;14.40;99.90;;;;;;5089865;28;20062;-69
2022/10/04 08:36:30;;;;;;;13.77;9.48;;;14.60;99.90;;;;;;5012195;28;20057;-70
2022/10/04 08:38:58;;;;;;;13.98;9.23;;;14.60;99.90;;;;;;4949993;28;20542;-69
2022/10/04 08:41:53;;;;;;;14.00;8.70;;;14.80;99.90;;;;;;4954543;28;20156;-68
2022/10/04 08:44:45;;;;;;;14.45;8.95;;;15.00;99.90;;;;;;4951037;28;20082;-70
2022/10/04 08:47:20;;;;;;;16.95;8.65;;;15.20;99.90;;;;;;4951310;28;20516;-69
2022/10/04 08:49:50;;;;;;;10.45;7.72;;;15.40;99.90;;;;;;4937560;28;20143;-69
2022/10/04 08:52:36;;;;;;;10.68;7.20;;;15.60;99.90;;;;;;4954760;28;20458;-69
2022/10/04 08:55:05;;;;;;;14.65;6.88;;;15.60;99.90;;;;;;4952975;28;20047;-68
2022/10/04 08:57:52;;;;;;;13.52;7.28;;;15.60;99.90;;;;;;4954267;28;20055;-70
2022/10/04 09:00:48;;;;;;;10.90;7.00;;;15.80;99.90;;;;;;4953872;28;20126;-68
2022/10/04 09:03:41;;;;;;;11.32;7.13;;;15.80;99.90;;;;;;4954382;28;20054;-71
2022/10/04 09:06:35;;;;;;;12.85;6.95;;;15.80;99.90;;;;;;4949682;28;20509;-70
2022/10/04 09:09:39;;;;;;;14.18;7.57;;;15.90;99.90;;;;;;4935268;28;20054;-70
2022/10/04 09:12:10;;;;;;;8.88;6.53;;;16.00;99.90;;;;;;4986787;28;20121;-70
2022/10/04 09:15:01;;;;;;;13.23;6.95;;;16.00;99.90;;;;;;4992368;28;20057;-69
2022/10/04 09:17:37;;;;;;;8.98;6.20;;;16.00;99.90;;;;;;5086539;28;20410;-70
2022/10/04 09:20:40;;;;;;;15.20;6.80;;;16.00;99.90;;;;;;5089929;28;20032;-70
2022/10/04 09:23:30;;;;;;;10.50;6.35;;;16.20;99.90;;;;;;5084366;28;20040;-71
2022/10/04 09:26:44;;;;;;;9.35;6.78;;;16.40;99.90;;;;;;5085689;28;20044;-70
2022/10/04 09:29:15;;;;;;;9.98;6.30;;;16.50;99.90;;;;;;5009215;28;20076;-70
2022/10/04 09:31:59;;;;;;;14.38;6.05;;;16.70;99.90;;;;;;4981474;28;20132;-68
2022/10/04 09:34:37;;;;;;;13.23;6.07;;;16.70;99.90;;;;;;4988594;28;20050;-69
2022/10/04 09:37:30;;;;;;;9.40;5.88;;;16.70;99.90;;;;;;4988045;28;20070;-69
2022/10/04 09:40:27;;;;;;;11.82;5.63;;;17.00;99.90;;;;;;4973859;28;20132;-69
2022/10/04 09:43:16;;;;;;;11.40;5.80;;;17.00;99.90;;;;;;4989531;28;20081;-68
2022/10/04 09:46:00;;;;;;;13.32;6.10;;;17.00;99.90;;;;;;4992680;28;20041;-68
2022/10/04 09:48:52;;;;;;;10.57;6.07;;;17.20;99.90;;;;;;4986980;28;20041;-69
2022/10/04 09:51:28;;;;;;;9.48;5.47;;;17.30;99.90;;;;;;4982835;28;20528;-69
2022/10/04 09:54:44;;;;;;;10.63;5.53;;;17.40;99.90;;;;;;4988401;28;20061;-69
2022/10/04 09:57:44;;;;;;;9.27;5.40;;;17.70;99.90;;;;;;4976047;28;20516;-70
2022/10/04 10:00:32;;;;;;;11.15;5.20;;;17.90;99.90;;;;;;5018731;28;20040;-68
2022/10/04 10:03:16;;;;;;;8.55;5.60;;;17.90;99.90;;;;;;5030791;28;20032;-70
2022/10/04 10:06:09;;;;;;;11.20;5.20;;;17.80;99.90;;;;;;5052693;28;20043;-69
2022/10/04 10:09:06;;;;;;;6.95;4.50;;;17.70;99.90;;;;;;5051539;28;20086;-70
2022/10/04 10:15:10;;;;;;;10.30;4.72;;;17.80;99.90;;;;;;5061073;28;20650;-69
2022/10/04 10:17:49;;;;;;;11.30;4.88;;;18.30;99.90;;;;;;5052527;28;20498;-70
2022/10/04 10:20:50;;;;;;;7.38;4.63;;;18.50;99.90;;;;;;5058032;28;20041;-68
2022/10/04 10:23:40;;;;;;;9.40;4.90;;;18.80;99.90;;;;;;5071471;28;20047;-70
2022/10/04 10:26:43;;;;;;;10.40;5.03;;;18.70;99.90;;;;;;5045363;28;20048;-70
2022/10/04 10:29:27;;;;;;;13.02;5.15;;;18.90;99.90;;;;;;5052156;28;20500;-69
2022/10/04 10:31:53;;;;;;;9.68;4.95;;;18.80;99.90;;;;;;5068127;28;20062;-69
2022/10/04 10:34:42;;;;;;;11.35;4.53;;;18.80;99.90;;;;;;5072049;28;20035;-69
2022/10/04 10:37:45;;;;;;;8.82;4.30;;;18.80;99.90;;;;;;5071949;28;20114;-68
2022/10/04 10:40:44;;;;;;;8.68;4.60;;;19.20;99.90;;;;;;5072418;28;20126;-69
2022/10/04 10:43:32;;;;;;;6.70;4.38;;;19.20;99.90;;;;;;5055112;28;20089;-70
2022/10/04 10:46:31;;;;;;;9.38;4.35;;;19.20;99.90;;;;;;5071855;28;20047;-70
2022/10/04 10:49:09;;;;;;;7.22;4.57;;;19.20;99.90;;;;;;5069650;28;20040;-71
2022/10/04 10:52:24;;;;;;;7.45;4.80;;;19.10;99.90;;;;;;5072520;28;20387;-68
2022/10/04 10:54:56;;;;;;;12.75;5.30;;;19.10;99.90;;;;;;4991344;28;20417;-70
2022/10/04 10:57:59;;;;;;;11.00;4.90;;;19.40;99.90;;;;;;4990983;28;20128;-70
2022/10/04 11:00:57;;;;;;;10.20;4.40;;;19.70;99.90;;;;;;4987737;28;20077;-70
2022/10/04 11:03:29;;;;;;;6.65;4.35;;;20.00;99.90;;;;;;4993318;28;20048;-70
2022/10/04 11:06:20;;;;;;;10.45;4.53;;;19.90;99.90;;;;;;4995538;28;20524;-69
2022/10/04 11:09:11;;;;;;;6.95;4.38;;;20.10;99.90;;;;;;4995441;28;20037;-70
2022/10/04 11:12:23;;;;;;;7.47;4.53;;;20.00;99.90;;;;;;4995447;28;20045;-70
2022/10/04 11:14:48;;;;;;;9.07;4.70;;;20.30;99.90;;;;;;4991412;28;20172;-70
2022/10/04 11:17:45;;;;;;;10.23;4.65;;;20.10;99.90;;;;;;4994702;28;20073;-69
2022/10/04 11:20:51;;;;;;;8.07;4.75;;;20.30;99.90;;;;;;4994668;28;20057;-69
2022/10/04 11:23:50;;;;;;;9.35;4.10;;;20.40;99.90;;;;;;4955162;28;20042;-70
2022/10/04 11:26:28;;;;;;;9.40;4.80;;;20.60;99.90;;;;;;4955686;28;20056;-69
2022/10/04 11:29:21;;;;;;;8.07;5.18;;;20.50;99.90;;;;;;4972268;28;20051;-70
2022/10/04 11:32:18;;;;;;;9.15;4.90;;;20.30;99.90;;;;;;5021837;28;20486;-70
2022/10/04 11:35:04;;;;;;;9.55;5.07;;;20.20;99.90;;;;;;5014045;28;20159;-68
2022/10/04 11:37:42;;;;;;;7.75;4.78;;;20.30;99.90;;;;;;5014875;28;20041;-71
2022/10/04 11:40:35;;;;;;;10.75;5.15;;;20.10;99.90;;;;;;5014268;28;20084;-69
2022/10/04 11:43:30;;;;;;;8.27;5.32;;;19.90;99.90;;;;;;4998424;28;20034;-70
2022/10/04 11:46:03;;;;;;;8.20;5.00;;;19.60;99.90;;;;;;4996852;28;20065;-69
2022/10/04 11:48:47;;;;;;;;;;;19.60;99.90;;;;;;5015020;28;20408;-70
2022/10/04 11:51:16;;;;;;;9.43;4.57;;;19.40;99.90;;;;;;5030787;28;19921;-70
2022/10/04 11:53:54;;;;;;;7.88;4.45;;;19.40;99.90;;;;;;5019969;28;20051;-70
2022/10/04 11:56:36;;;;;;;10.52;5.53;;;19.40;99.90;;;;;;5075066;28;20587;-69
2022/10/04 11:59:25;;;;;;;9.35;4.75;;;19.10;99.90;;;;;;5074927;28;20044;-70
2022/10/04 12:01:51;;;;;;;9.52;4.80;;;19.00;99.90;;;;;;5074784;28;20141;-70
2022/10/04 12:04:20;;;;;;;9.80;5.47;;;18.90;99.90;;;;;;5074799;28;20658;-70
2022/10/04 12:07:08;;;;;;;9.73;5.20;;;18.90;99.90;;;;;;5074449;28;20047;-71
2022/10/04 12:09:52;;;;;;;9.15;4.97;;;18.80;99.90;;;;;;5074774;28;20043;-70
2022/10/04 12:12:46;;;;;;;6.53;4.63;;;18.70;99.90;;;;;;5074320;28;20047;-69
2022/10/04 12:15:12;;;;;;;8.57;4.55;;;18.60;99.90;;;;;;5074994;28;20127;-70
2022/10/04 12:18:11;;;;;;;11.77;4.80;;;18.50;99.90;;;;;;5074221;28;20043;-69
2022/10/04 12:20:50;;;;;;;9.55;4.05;;;18.40;99.90;;;;;;5074539;28;20457;-70
2022/10/04 12:23:28;;;;;;;9.52;4.15;;;18.40;99.90;;;;;;5070980;28;20395;-71
2022/10/04 12:26:12;;;;;;;8.35;3.75;;;18.40;99.90;;;;;;5074505;28;20821;-69
2022/10/04 12:29:11;;;;;;;8.60;3.92;;;18.30;99.90;;;;;;5057758;28;20574;-68
2022/10/04 12:31:45;;;;;;;9.00;3.72;;;18.30;99.90;;;;;;5074113;28;20048;-69
2022/10/04 12:34:13;;;;;;;7.22;3.88;;;18.30;99.90;;;;;;5074320;28;20118;-69
2022/10/04 12:37:20;;;;;;;10.35;4.43;;;18.30;99.90;;;;;;5058024;28;20035;-70
2022/10/04 12:40:14;;;;;;;13.00;5.35;;;18.30;99.90;;;;;;4993835;28;20103;-69
2022/10/04 12:42:58;;;;;;;9.35;4.30;;;18.20;99.90;;;;;;5009969;28;20121;-70
2022/10/04 12:45:51;;;;;;;6.72;3.80;;;18.10;99.90;;;;;;4993767;28;20041;-70
2022/10/04 12:48:19;;;;;;;;;;;18.10;99.90;;;;;;4994282;28;20485;-69
2022/10/04 12:51:08;;;;;;;6.38;4.00;;;18.10;99.90;;;;;;4993034;28;20300;-71
2022/10/04 12:53:50;;;;;;;9.07;3.83;;;18.00;99.90;;;;;;5007995;28;20149;-71
2022/10/04 12:56:36;;;;;;;8.55;3.60;;;18.20;99.90;;;;;;4992438;28;20066;-70
2022/10/04 12:59:17;;;;;;;7.20;3.97;;;18.90;99.90;;;;;;4976507;28;20088;-70
2022/10/04 13:01:52;;;;;;;5.63;3.45;;;18.90;99.90;;;;;;4992272;28;20094;-70
2022/10/04 13:04:46;;;;;;;8.70;3.40;;;18.80;99.90;;;;;;4992823;28;20050;-69
2022/10/04 13:07:35;;;;;;;8.18;3.60;;;18.60;99.90;;;;;;4992751;28;20037;-69
2022/10/04 13:10:37;;;;;;;8.45;3.83;;;18.40;99.90;;;;;;4976655;28;20603;-70
2022/10/04 13:13:03;;;;;;;8.27;3.73;;;18.10;99.90;;;;;;4914064;29;20142;-69
2022/10/04 13:16:10;;;;;;;6.65;3.90;;;18.00;99.90;;;;;;4931693;28;20079;-70
2022/10/04 13:18:45;;;;;;;7.45;3.42;;;17.90;99.90;;;;;;4953713;28;20526;-69
2022/10/04 13:21:21;;;;;;;6.47;3.20;;;17.90;99.90;;;;;;4953630;28;20065;-70
2022/10/04 13:24:25;;;;;;;5.65;2.97;;;17.80;99.90;;;;;;4953315;28;20488;-69
2022/10/04 13:27:22;;;;;;;8.70;3.40;;;17.80;99.90;;;;;;4915564;29;20138;-70
2022/10/04 13:30:05;;;;;;;7.07;3.60;;;17.80;99.90;;;;;;4835296;29;20050;-70
2022/10/04 13:32:48;;;;;;;4.45;2.65;;;17.90;99.90;;;;;;4823068;29;20062;-69
2022/10/04 13:35:40;;;;;;;9.45;3.17;;;18.10;99.90;;;;;;4822990;29;20066;-70
2022/10/04 13:38:45;;;;;;;5.35;2.47;;;18.20;99.90;;;;;;4822736;29;20077;-70
2022/10/04 13:41:31;;;;;;;5.55;3.00;;;18.30;99.90;;;;;;4822700;29;20046;-70
2022/10/04 13:44:19;;;;;;;6.93;2.70;;;18.50;99.90;;;;;;4822553;29;20058;-70
2022/10/04 13:46:59;;;;;;;6.70;2.25;;;18.60;99.90;;;;;;4822598;29;20061;-69
2022/10/04 13:49:52;;;;;;;6.78;2.88;;;18.90;99.90;;;;;;4833756;29;20063;-70
2022/10/04 13:59:13;;;;;;;5.40;2.47;;;19.00;99.90;;;;;;4896572;29;20483;-68